sensor_id;sensor_type;location;lat;lon;timestamp;temperature;humidity
13172;DHT22;6651;53.200;10.432;2023-07-08T00:00:47;18.40;99.90
13172;DHT22;6651;53.200;10.432;2023-07-08T00:03:17;18.30;99.90
13172;DHT22;6651;53.200;10.432;2023-07-08T00:05:44;18.40;99.90
13172;DHT22;6651;53.200;10.432;2023-07-08T00:08:17;18.30;99.90
13172;DHT22;6651;53.200;10.432;2023-07-08T00:10:44;18.10;99.90
13172;DHT22;6651;53.200;10.432;2023-07-08T00:13:10;18.00;99.90
13172;DHT22;6651;53.200;10.432;2023-07-08T00:15:37;17.90;99.90
13172;DHT22;6651;53.200;10.432;2023-07-08T00:18:11;17.90;99.90
13172;DHT22;6651;53.200;10.432;2023-07-08T00:20:46;18.00;99.90
13172;DHT22;6651;53.200;10.432;2023-07-08T00:23:12;18.00;99.90
13172;DHT22;6651;53.200;10.432;2023-07-08T00:25:38;17.90;99.90
13172;DHT22;6651;53.200;10.432;2023-07-08T00:28:22;17.90;99.90
13172;DHT22;6651;53.200;10.432;2023-07-08T00:30:48;17.70;99.90
13172;DHT22;6651;53.200;10.432;2023-07-08T00:33:14;17.60;99.90
13172;DHT22;6651;53.200;10.432;2023-07-08T00:35:41;17.40;99.90
13172;DHT22;6651;53.200;10.432;2023-07-08T00:38:25;17.30;99.90
13172;DHT22;6651;53.200;10.432;2023-07-08T00:41:14;17.20;99.90
13172;DHT22;6651;53.200;10.432;2023-07-08T00:43:54;17.10;99.90
13172;DHT22;6651;53.200;10.432;2023-07-08T00:51:39;17.30;99.90
13172;DHT22;6651;53.200;10.432;2023-07-08T00:54:09;17.30;99.90
13172;DHT22;6651;53.200;10.432;2023-07-08T00:57:14;17.00;99.90
13172;DHT22;6651;53.200;10.432;2023-07-08T00:59:40;16.90;99.90
13172;DHT22;6651;53.200;10.432;2023-07-08T01:02:09;17.00;99.90
13172;DHT22;6651;53.200;10.432;2023-07-08T01:04:49;17.10;99.90
13172;DHT22;6651;53.200;10.432;2023-07-08T01:07:16;17.10;99.90
13172;DHT22;6651;53.200;10.432;2023-07-08T01:09:50;17.10;99.90
13172;DHT22;6651;53.200;10.432;2023-07-08T01:12:20;17.00;99.90
13172;DHT22;6651;53.200;10.432;2023-07-08T01:14:47;16.90;99.90
13172;DHT22;6651;53.200;10.432;2023-07-08T01:17:13;16.80;99.90
13172;DHT22;6651;53.200;10.432;2023-07-08T01:19:43;16.70;99.90
13172;DHT22;6651;53.200;10.432;2023-07-08T01:22:10;16.60;99.90
13172;DHT22;6651;53.200;10.432;2023-07-08T01:24:40;16.60;99.90
13172;DHT22;6651;53.200;10.432;2023-07-08T01:27:10;16.70;99.90
13172;DHT22;6651;53.200;10.432;2023-07-08T01:29:36;16.70;99.90
13172;DHT22;6651;53.200;10.432;2023-07-08T01:32:02;16.70;99.90
13172;DHT22;6651;53.200;10.432;2023-07-08T01:34:37;16.60;99.90
13172;DHT22;6651;53.200;10.432;2023-07-08T01:37:04;16.50;99.90
13172;DHT22;6651;53.200;10.432;2023-07-08T01:39:32;16.50;99.90
13172;DHT22;6651;53.200;10.432;2023-07-08T01:41:58;16.50;99.90
13172;DHT22;6651;53.200;10.432;2023-07-08T01:44:32;16.50;99.90
13172;DHT22;6651;53.200;10.432;2023-07-08T01:47:07;16.40;99.90
13172;DHT22;6651;53.200;10.432;2023-07-08T01:49:36;16.40;99.90
13172;DHT22;6651;53.200;10.432;2023-07-08T01:52:02;16.30;99.90
13172;DHT22;6651;53.200;10.432;2023-07-08T01:54:28;16.20;99.90
13172;DHT22;6651;53.200;10.432;2023-07-08T01:56:55;16.10;99.90
13172;DHT22;6651;53.200;10.432;2023-07-08T01:59:21;16.10;99.90
13172;DHT22;6651;53.200;10.432;2023-07-08T02:01:47;16.00;99.90
13172;DHT22;6651;53.200;10.432;2023-07-08T02:04:15;16.10;99.90
13172;DHT22;6651;53.200;10.432;2023-07-08T02:06:41;16.00;99.90
13172;DHT22;6651;53.200;10.432;2023-07-08T02:09:07;16.10;99.90
13172;DHT22;6651;53.200;10.432;2023-07-08T02:11:33;16.10;99.90
13172;DHT22;6651;53.200;10.432;2023-07-08T02:13:59;15.90;99.90
13172;DHT22;6651;53.200;10.432;2023-07-08T02:16:26;15.80;99.90
13172;DHT22;6651;53.200;10.432;2023-07-08T02:18:51;15.90;99.90
13172;DHT22;6651;53.200;10.432;2023-07-08T02:21:17;15.80;99.90
13172;DHT22;6651;53.200;10.432;2023-07-08T02:23:45;15.80;99.90
13172;DHT22;6651;53.200;10.432;2023-07-08T02:26:11;15.70;99.90
13172;DHT22;6651;53.200;10.432;2023-07-08T02:28:37;15.60;99.90
13172;DHT22;6651;53.200;10.432;2023-07-08T02:31:03;15.50;99.90
13172;DHT22;6651;53.200;10.432;2023-07-08T02:33:28;15.60;99.90
13172;DHT22;6651;53.200;10.432;2023-07-08T02:35:59;15.60;99.90
13172;DHT22;6651;53.200;10.432;2023-07-08T02:38:26;15.60;99.90
13172;DHT22;6651;53.200;10.432;2023-07-08T02:40:51;15.50;99.90
13172;DHT22;6651;53.200;10.432;2023-07-08T02:43:17;15.60;99.90
13172;DHT22;6651;53.200;10.432;2023-07-08T02:45:43;15.50;99.90
13172;DHT22;6651;53.200;10.432;2023-07-08T02:48:08;15.50;99.90
13172;DHT22;6651;53.200;10.432;2023-07-08T02:50:34;15.50;99.90
13172;DHT22;6651;53.200;10.432;2023-07-08T02:53:00;15.40;99.90
13172;DHT22;6651;53.200;10.432;2023-07-08T02:55:25;15.30;99.90
13172;DHT22;6651;53.200;10.432;2023-07-08T02:57:51;15.30;99.90
13172;DHT22;6651;53.200;10.432;2023-07-08T03:00:16;15.30;99.90
13172;DHT22;6651;53.200;10.432;2023-07-08T03:02:42;15.20;99.90
13172;DHT22;6651;53.200;10.432;2023-07-08T03:05:08;15.20;99.90
13172;DHT22;6651;53.200;10.432;2023-07-08T03:07:33;15.20;99.90
13172;DHT22;6651;53.200;10.432;2023-07-08T03:09:59;15.10;99.90
13172;DHT22;6651;53.200;10.432;2023-07-08T03:12:25;14.90;99.90
13172;DHT22;6651;53.200;10.432;2023-07-08T03:14:50;14.90;99.90
13172;DHT22;6651;53.200;10.432;2023-07-08T03:17:16;14.90;99.90
13172;DHT22;6651;53.200;10.432;2023-07-08T03:19:43;14.80;99.90
13172;DHT22;6651;53.200;10.432;2023-07-08T03:22:09;14.80;99.90
13172;DHT22;6651;53.200;10.432;2023-07-08T03:24:34;14.90;99.90
13172;DHT22;6651;53.200;10.432;2023-07-08T03:27:00;14.90;99.90
13172;DHT22;6651;53.200;10.432;2023-07-08T03:29:30;15.00;99.90
13172;DHT22;6651;53.200;10.432;2023-07-08T03:31:56;14.90;99.90
13172;DHT22;6651;53.200;10.432;2023-07-08T03:34:22;14.90;99.90
13172;DHT22;6651;53.200;10.432;2023-07-08T03:36:50;14.80;99.90
13172;DHT22;6651;53.200;10.432;2023-07-08T03:39:17;14.70;99.90
13172;DHT22;6651;53.200;10.432;2023-07-08T03:41:44;14.70;99.90
13172;DHT22;6651;53.200;10.432;2023-07-08T03:44:10;14.80;99.90
13172;DHT22;6651;53.200;10.432;2023-07-08T03:46:36;14.80;99.90
13172;DHT22;6651;53.200;10.432;2023-07-08T03:49:01;14.70;99.90
13172;DHT22;6651;53.200;10.432;2023-07-08T03:51:31;14.70;99.90
13172;DHT22;6651;53.200;10.432;2023-07-08T03:53:57;14.70;99.90
13172;DHT22;6651;53.200;10.432;2023-07-08T03:56:23;14.60;99.90
13172;DHT22;6651;53.200;10.432;2023-07-08T03:58:50;14.60;99.90
13172;DHT22;6651;53.200;10.432;2023-07-08T04:01:20;14.60;99.90
13172;DHT22;6651;53.200;10.432;2023-07-08T04:03:47;14.60;99.90
13172;DHT22;6651;53.200;10.432;2023-07-08T04:06:14;14.70;99.90
13172;DHT22;6651;53.200;10.432;2023-07-08T04:08:39;14.70;99.90
13172;DHT22;6651;53.200;10.432;2023-07-08T04:11:05;14.70;99.90
13172;DHT22;6651;53.200;10.432;2023-07-08T04:13:32;14.70;99.90
13172;DHT22;6651;53.200;10.432;2023-07-08T04:16:02;14.60;99.90
13172;DHT22;6651;53.200;10.432;2023-07-08T04:18:29;14.70;99.90
13172;DHT22;6651;53.200;10.432;2023-07-08T04:20:55;14.80;99.90
13172;DHT22;6651;53.200;10.432;2023-07-08T04:23:24;14.80;99.90
13172;DHT22;6651;53.200;10.432;2023-07-08T04:25:52;14.80;99.90
13172;DHT22;6651;53.200;10.432;2023-07-08T04:28:18;14.90;99.90
13172;DHT22;6651;53.200;10.432;2023-07-08T04:30:43;14.90;99.90
13172;DHT22;6651;53.200;10.432;2023-07-08T04:33:14;15.00;99.90
13172;DHT22;6651;53.200;10.432;2023-07-08T04:35:41;15.00;99.90
13172;DHT22;6651;53.200;10.432;2023-07-08T04:38:17;15.10;99.90
13172;DHT22;6651;53.200;10.432;2023-07-08T04:40:43;15.20;99.90
13172;DHT22;6651;53.200;10.432;2023-07-08T04:43:09;15.20;99.90
13172;DHT22;6651;53.200;10.432;2023-07-08T04:45:37;15.20;99.90
13172;DHT22;6651;53.200;10.432;2023-07-08T04:48:03;15.20;99.90
13172;DHT22;6651;53.200;10.432;2023-07-08T04:50:48;15.20;99.90
13172;DHT22;6651;53.200;10.432;2023-07-08T04:53:14;15.20;99.90
13172;DHT22;6651;53.200;10.432;2023-07-08T04:55:42;15.30;99.90
13172;DHT22;6651;53.200;10.432;2023-07-08T04:58:09;15.30;99.90
13172;DHT22;6651;53.200;10.432;2023-07-08T05:00:34;15.30;99.90
13172;DHT22;6651;53.200;10.432;2023-07-08T05:03:00;15.40;99.90
13172;DHT22;6651;53.200;10.432;2023-07-08T05:05:26;15.50;99.90
13172;DHT22;6651;53.200;10.432;2023-07-08T05:07:52;15.50;99.90
13172;DHT22;6651;53.200;10.432;2023-07-08T05:10:18;15.60;99.90
13172;DHT22;6651;53.200;10.432;2023-07-08T05:12:45;15.60;99.90
13172;DHT22;6651;53.200;10.432;2023-07-08T05:15:11;15.70;99.90
13172;DHT22;6651;53.200;10.432;2023-07-08T05:17:38;15.70;99.90
13172;DHT22;6651;53.200;10.432;2023-07-08T05:20:06;15.80;99.90
13172;DHT22;6651;53.200;10.432;2023-07-08T05:22:33;15.90;99.90
13172;DHT22;6651;53.200;10.432;2023-07-08T05:24:59;16.00;99.90
13172;DHT22;6651;53.200;10.432;2023-07-08T05:27:25;16.10;99.90
13172;DHT22;6651;53.200;10.432;2023-07-08T05:29:51;16.20;99.90
13172;DHT22;6651;53.200;10.432;2023-07-08T05:32:17;16.30;99.90
13172;DHT22;6651;53.200;10.432;2023-07-08T05:34:43;16.50;99.90
13172;DHT22;6651;53.200;10.432;2023-07-08T05:37:10;16.60;99.90
13172;DHT22;6651;53.200;10.432;2023-07-08T05:39:36;16.80;99.90
13172;DHT22;6651;53.200;10.432;2023-07-08T05:42:02;16.90;99.90
13172;DHT22;6651;53.200;10.432;2023-07-08T05:44:27;17.00;99.90
13172;DHT22;6651;53.200;10.432;2023-07-08T05:46:53;17.20;99.90
13172;DHT22;6651;53.200;10.432;2023-07-08T05:49:19;17.30;99.90
13172;DHT22;6651;53.200;10.432;2023-07-08T05:51:44;17.40;99.90
13172;DHT22;6651;53.200;10.432;2023-07-08T05:54:10;17.40;99.90
13172;DHT22;6651;53.200;10.432;2023-07-08T05:56:36;17.60;99.90
13172;DHT22;6651;53.200;10.432;2023-07-08T05:59:03;17.80;99.90
13172;DHT22;6651;53.200;10.432;2023-07-08T06:01:29;17.90;99.90
13172;DHT22;6651;53.200;10.432;2023-07-08T06:03:54;18.10;99.90
13172;DHT22;6651;53.200;10.432;2023-07-08T06:06:23;18.30;99.90
13172;DHT22;6651;53.200;10.432;2023-07-08T06:08:49;18.30;99.90
13172;DHT22;6651;53.200;10.432;2023-07-08T06:11:15;18.50;99.90
13172;DHT22;6651;53.200;10.432;2023-07-08T06:13:41;18.80;99.90
13172;DHT22;6651;53.200;10.432;2023-07-08T06:16:06;18.90;99.90
13172;DHT22;6651;53.200;10.432;2023-07-08T06:18:32;19.00;99.90
13172;DHT22;6651;53.200;10.432;2023-07-08T06:20:58;19.10;99.90
13172;DHT22;6651;53.200;10.432;2023-07-08T06:23:24;19.10;99.90
13172;DHT22;6651;53.200;10.432;2023-07-08T06:25:50;19.40;99.90
13172;DHT22;6651;53.200;10.432;2023-07-08T06:28:16;19.60;99.90
13172;DHT22;6651;53.200;10.432;2023-07-08T06:30:42;19.80;99.90
13172;DHT22;6651;53.200;10.432;2023-07-08T06:33:08;19.90;99.90
13172;DHT22;6651;53.200;10.432;2023-07-08T06:35:34;19.90;99.90
13172;DHT22;6651;53.200;10.432;2023-07-08T06:37:59;20.10;99.90
13172;DHT22;6651;53.200;10.432;2023-07-08T06:40:25;20.10;99.90
13172;DHT22;6651;53.200;10.432;2023-07-08T06:42:51;20.20;99.90
13172;DHT22;6651;53.200;10.432;2023-07-08T06:45:16;20.10;99.90
13172;DHT22;6651;53.200;10.432;2023-07-08T06:47:42;20.30;99.90
13172;DHT22;6651;53.200;10.432;2023-07-08T06:50:08;20.50;99.90
13172;DHT22;6651;53.200;10.432;2023-07-08T06:52:34;20.60;99.90
13172;DHT22;6651;53.200;10.432;2023-07-08T06:55:04;20.50;99.90
13172;DHT22;6651;53.200;10.432;2023-07-08T06:57:30;20.60;99.90
13172;DHT22;6651;53.200;10.432;2023-07-08T06:59:55;20.80;99.90
13172;DHT22;6651;53.200;10.432;2023-07-08T07:02:21;21.00;99.90
13172;DHT22;6651;53.200;10.432;2023-07-08T07:04:47;21.30;99.90
13172;DHT22;6651;53.200;10.432;2023-07-08T07:07:12;21.40;99.90
13172;DHT22;6651;53.200;10.432;2023-07-08T07:09:38;21.50;99.90
13172;DHT22;6651;53.200;10.432;2023-07-08T07:12:06;21.50;99.90
13172;DHT22;6651;53.200;10.432;2023-07-08T07:14:32;21.70;99.90
13172;DHT22;6651;53.200;10.432;2023-07-08T07:16:58;21.90;99.90
13172;DHT22;6651;53.200;10.432;2023-07-08T07:19:24;22.00;99.90
13172;DHT22;6651;53.200;10.432;2023-07-08T07:21:50;22.20;99.90
13172;DHT22;6651;53.200;10.432;2023-07-08T07:24:16;22.40;99.90
13172;DHT22;6651;53.200;10.432;2023-07-08T07:26:42;22.50;99.90
13172;DHT22;6651;53.200;10.432;2023-07-08T07:29:08;22.70;99.90
13172;DHT22;6651;53.200;10.432;2023-07-08T07:31:33;22.90;99.90
13172;DHT22;6651;53.200;10.432;2023-07-08T07:34:00;23.10;99.90
13172;DHT22;6651;53.200;10.432;2023-07-08T07:36:28;23.30;99.90
13172;DHT22;6651;53.200;10.432;2023-07-08T07:38:54;23.60;99.90
13172;DHT22;6651;53.200;10.432;2023-07-08T07:41:20;23.70;99.90
13172;DHT22;6651;53.200;10.432;2023-07-08T07:43:46;23.70;99.90
13172;DHT22;6651;53.200;10.432;2023-07-08T07:46:12;23.90;99.90
13172;DHT22;6651;53.200;10.432;2023-07-08T07:48:38;24.10;99.90
13172;DHT22;6651;53.200;10.432;2023-07-08T07:51:05;24.40;99.90
13172;DHT22;6651;53.200;10.432;2023-07-08T07:53:31;24.70;99.90
13172;DHT22;6651;53.200;10.432;2023-07-08T07:56:01;24.80;99.90
13172;DHT22;6651;53.200;10.432;2023-07-08T07:58:27;24.90;99.90
13172;DHT22;6651;53.200;10.432;2023-07-08T08:00:53;25.10;99.90
13172;DHT22;6651;53.200;10.432;2023-07-08T08:03:20;25.20;99.90
13172;DHT22;6651;53.200;10.432;2023-07-08T08:05:46;25.30;99.90
13172;DHT22;6651;53.200;10.432;2023-07-08T08:08:12;25.40;99.90
13172;DHT22;6651;53.200;10.432;2023-07-08T08:10:37;25.50;99.90
13172;DHT22;6651;53.200;10.432;2023-07-08T08:13:03;25.70;99.90
13172;DHT22;6651;53.200;10.432;2023-07-08T08:15:29;25.90;99.90
13172;DHT22;6651;53.200;10.432;2023-07-08T08:17:55;26.00;99.90
13172;DHT22;6651;53.200;10.432;2023-07-08T08:20:23;26.10;99.90
13172;DHT22;6651;53.200;10.432;2023-07-08T08:22:49;26.40;99.90
13172;DHT22;6651;53.200;10.432;2023-07-08T08:25:16;26.60;99.90
13172;DHT22;6651;53.200;10.432;2023-07-08T08:27:42;26.70;99.90
13172;DHT22;6651;53.200;10.432;2023-07-08T08:30:09;26.80;99.90
13172;DHT22;6651;53.200;10.432;2023-07-08T08:32:35;26.80;99.90
13172;DHT22;6651;53.200;10.432;2023-07-08T08:35:01;27.00;99.90
13172;DHT22;6651;53.200;10.432;2023-07-08T08:37:27;27.10;99.90
13172;DHT22;6651;53.200;10.432;2023-07-08T08:39:52;27.20;99.90
13172;DHT22;6651;53.200;10.432;2023-07-08T08:44:53;27.40;99.90
13172;DHT22;6651;53.200;10.432;2023-07-08T08:49:57;27.60;99.90
13172;DHT22;6651;53.200;10.432;2023-07-08T08:52:25;27.70;99.90
13172;DHT22;6651;53.200;10.432;2023-07-08T08:54:51;27.80;99.90
13172;DHT22;6651;53.200;10.432;2023-07-08T08:57:45;27.90;99.90
13172;DHT22;6651;53.200;10.432;2023-07-08T09:00:18;28.10;99.90
13172;DHT22;6651;53.200;10.432;2023-07-08T09:05:15;28.40;99.90
13172;DHT22;6651;53.200;10.432;2023-07-08T09:08:30;28.60;99.90
13172;DHT22;6651;53.200;10.432;2023-07-08T09:10:55;28.80;99.90
13172;DHT22;6651;53.200;10.432;2023-07-08T09:13:34;29.10;99.90
13172;DHT22;6651;53.200;10.432;2023-07-08T09:16:18;29.30;99.90
13172;DHT22;6651;53.200;10.432;2023-07-08T09:18:57;29.30;99.90
13172;DHT22;6651;53.200;10.432;2023-07-08T09:21:37;29.30;99.90
13172;DHT22;6651;53.200;10.432;2023-07-08T09:24:10;29.30;99.90
13172;DHT22;6651;53.200;10.432;2023-07-08T09:26:41;29.40;99.90
13172;DHT22;6651;53.200;10.432;2023-07-08T09:29:10;29.60;99.90
13172;DHT22;6651;53.200;10.432;2023-07-08T09:31:38;29.80;99.90
13172;DHT22;6651;53.200;10.432;2023-07-08T09:34:10;30.00;99.90
13172;DHT22;6651;53.200;10.432;2023-07-08T09:36:43;30.10;99.90
13172;DHT22;6651;53.200;10.432;2023-07-08T09:39:12;30.10;99.90
13172;DHT22;6651;53.200;10.432;2023-07-08T09:41:39;30.20;99.90
13172;DHT22;6651;53.200;10.432;2023-07-08T09:46:40;30.20;99.90
13172;DHT22;6651;53.200;10.432;2023-07-08T09:49:17;30.20;99.90
13172;DHT22;6651;53.200;10.432;2023-07-08T09:51:45;30.30;99.90
13172;DHT22;6651;53.200;10.432;2023-07-08T09:54:10;30.50;99.90
13172;DHT22;6651;53.200;10.432;2023-07-08T09:56:41;30.70;99.90
13172;DHT22;6651;53.200;10.432;2023-07-08T09:59:12;30.80;99.90
13172;DHT22;6651;53.200;10.432;2023-07-08T10:01:40;31.00;99.90
13172;DHT22;6651;53.200;10.432;2023-07-08T10:04:06;31.30;99.90
13172;DHT22;6651;53.200;10.432;2023-07-08T10:06:33;31.40;99.50
13172;DHT22;6651;53.200;10.432;2023-07-08T10:09:13;31.10;99.50
13172;DHT22;6651;53.200;10.432;2023-07-08T10:11:52;31.20;99.90
13172;DHT22;6651;53.200;10.432;2023-07-08T10:14:39;31.10;99.70
13172;DHT22;6651;53.200;10.432;2023-07-08T10:17:10;31.30;98.70
13172;DHT22;6651;53.200;10.432;2023-07-08T10:19:38;31.10;98.60
13172;DHT22;6651;53.200;10.432;2023-07-08T10:25:03;31.30;98.60
13172;DHT22;6651;53.200;10.432;2023-07-08T10:30:32;31.40;97.40
13172;DHT22;6651;53.200;10.432;2023-07-08T10:36:04;31.60;97.40
13172;DHT22;6651;53.200;10.432;2023-07-08T10:44:26;32.10;96.50
13172;DHT22;6651;53.200;10.432;2023-07-08T10:49:59;32.10;96.10
13172;DHT22;6651;53.200;10.432;2023-07-08T10:55:43;31.90;96.20
13172;DHT22;6651;53.200;10.432;2023-07-08T10:58:49;32.10;95.70
13172;DHT22;6651;53.200;10.432;2023-07-08T11:07:30;32.60;94.30
13172;DHT22;6651;53.200;10.432;2023-07-08T11:10:06;32.80;94.60
13172;DHT22;6651;53.200;10.432;2023-07-08T11:12:49;33.00;95.20
13172;DHT22;6651;53.200;10.432;2023-07-08T11:15:22;33.10;96.20
13172;DHT22;6651;53.200;10.432;2023-07-08T11:20:37;33.10;93.30
13172;DHT22;6651;53.200;10.432;2023-07-08T11:23:28;33.00;94.00
13172;DHT22;6651;53.200;10.432;2023-07-08T11:26:13;33.00;96.00
13172;DHT22;6651;53.200;10.432;2023-07-08T11:28:41;33.00;92.30
13172;DHT22;6651;53.200;10.432;2023-07-08T11:31:07;33.20;92.30
13172;DHT22;6651;53.200;10.432;2023-07-08T11:33:33;33.30;92.30
13172;DHT22;6651;53.200;10.432;2023-07-08T11:36:01;33.30;90.50
13172;DHT22;6651;53.200;10.432;2023-07-08T11:38:32;33.40;91.20
13172;DHT22;6651;53.200;10.432;2023-07-08T11:41:12;33.50;91.50
13172;DHT22;6651;53.200;10.432;2023-07-08T11:44:05;33.70;91.30
13172;DHT22;6651;53.200;10.432;2023-07-08T11:46:33;33.90;90.90
13172;DHT22;6651;53.200;10.432;2023-07-08T11:49:06;33.90;91.20
13172;DHT22;6651;53.200;10.432;2023-07-08T11:51:38;33.90;90.80
13172;DHT22;6651;53.200;10.432;2023-07-08T11:54:18;33.80;88.90
13172;DHT22;6651;53.200;10.432;2023-07-08T11:59:26;33.80;88.20
13172;DHT22;6651;53.200;10.432;2023-07-08T12:02:04;33.80;86.30
13172;DHT22;6651;53.200;10.432;2023-07-08T12:04:35;33.80;83.20
13172;DHT22;6651;53.200;10.432;2023-07-08T12:07:33;33.80;85.10
13172;DHT22;6651;53.200;10.432;2023-07-08T12:10:11;33.70;85.40
13172;DHT22;6651;53.200;10.432;2023-07-08T12:12:43;33.70;85.50
13172;DHT22;6651;53.200;10.432;2023-07-08T12:17:42;33.50;82.60
13172;DHT22;6651;53.200;10.432;2023-07-08T12:20:27;33.60;80.60
13172;DHT22;6651;53.200;10.432;2023-07-08T12:22:53;33.80;85.90
13172;DHT22;6651;53.200;10.432;2023-07-08T12:25:25;34.10;84.00
13172;DHT22;6651;53.200;10.432;2023-07-08T12:27:51;34.00;83.80
13172;DHT22;6651;53.200;10.432;2023-07-08T12:30:17;34.00;83.00
13172;DHT22;6651;53.200;10.432;2023-07-08T12:32:43;33.70;80.10
13172;DHT22;6651;53.200;10.432;2023-07-08T12:35:29;33.60;80.30
13172;DHT22;6651;53.200;10.432;2023-07-08T12:38:02;33.80;84.00
13172;DHT22;6651;53.200;10.432;2023-07-08T12:40:29;33.90;83.20
13172;DHT22;6651;53.200;10.432;2023-07-08T12:42:58;33.90;82.40
13172;DHT22;6651;53.200;10.432;2023-07-08T12:45:30;34.10;83.20
13172;DHT22;6651;53.200;10.432;2023-07-08T12:47:56;34.10;81.90
13172;DHT22;6651;53.200;10.432;2023-07-08T12:50:22;34.10;79.40
13172;DHT22;6651;53.200;10.432;2023-07-08T12:52:48;34.30;81.60
13172;DHT22;6651;53.200;10.432;2023-07-08T12:55:15;34.30;79.20
13172;DHT22;6651;53.200;10.432;2023-07-08T12:57:44;34.40;82.10
13172;DHT22;6651;53.200;10.432;2023-07-08T13:00:24;34.40;83.00
13172;DHT22;6651;53.200;10.432;2023-07-08T13:02:57;34.40;78.30
13172;DHT22;6651;53.200;10.432;2023-07-08T13:05:25;34.50;77.60
13172;DHT22;6651;53.200;10.432;2023-07-08T13:07:51;34.50;78.80
13172;DHT22;6651;53.200;10.432;2023-07-08T13:10:23;34.00;77.90
13172;DHT22;6651;53.200;10.432;2023-07-08T13:12:55;33.60;82.60
13172;DHT22;6651;53.200;10.432;2023-07-08T13:15:27;33.70;77.50
13172;DHT22;6651;53.200;10.432;2023-07-08T13:17:54;33.80;79.50
13172;DHT22;6651;53.200;10.432;2023-07-08T13:20:20;34.10;81.50
13172;DHT22;6651;53.200;10.432;2023-07-08T13:22:55;34.20;79.00
13172;DHT22;6651;53.200;10.432;2023-07-08T13:25:29;34.40;80.10
13172;DHT22;6651;53.200;10.432;2023-07-08T13:28:00;34.50;80.70
13172;DHT22;6651;53.200;10.432;2023-07-08T13:30:29;34.60;78.50
13172;DHT22;6651;53.200;10.432;2023-07-08T13:32:57;34.70;78.50
13172;DHT22;6651;53.200;10.432;2023-07-08T13:35:38;34.60;81.00
13172;DHT22;6651;53.200;10.432;2023-07-08T13:38:05;34.60;80.10
13172;DHT22;6651;53.200;10.432;2023-07-08T13:40:31;34.70;81.60
13172;DHT22;6651;53.200;10.432;2023-07-08T13:42:58;34.70;77.60
13172;DHT22;6651;53.200;10.432;2023-07-08T13:45:30;34.60;78.10
13172;DHT22;6651;53.200;10.432;2023-07-08T13:50:29;34.40;81.90
13172;DHT22;6651;53.200;10.432;2023-07-08T13:52:57;34.30;75.80
13172;DHT22;6651;53.200;10.432;2023-07-08T13:55:23;34.10;75.50
13172;DHT22;6651;53.200;10.432;2023-07-08T13:57:59;34.20;78.90
13172;DHT22;6651;53.200;10.432;2023-07-08T14:00:27;34.20;75.60
13172;DHT22;6651;53.200;10.432;2023-07-08T14:02:54;34.30;78.60
13172;DHT22;6651;53.200;10.432;2023-07-08T14:05:19;34.30;77.60
13172;DHT22;6651;53.200;10.432;2023-07-08T14:07:47;34.10;78.60
13172;DHT22;6651;53.200;10.432;2023-07-08T14:10:14;34.00;79.90
13172;DHT22;6651;53.200;10.432;2023-07-08T14:12:40;34.00;78.60
13172;DHT22;6651;53.200;10.432;2023-07-08T14:15:07;33.80;78.70
13172;DHT22;6651;53.200;10.432;2023-07-08T14:17:33;33.70;77.80
13172;DHT22;6651;53.200;10.432;2023-07-08T14:19:59;33.60;77.80
13172;DHT22;6651;53.200;10.432;2023-07-08T14:22:28;33.60;76.10
13172;DHT22;6651;53.200;10.432;2023-07-08T14:24:54;33.50;76.70
13172;DHT22;6651;53.200;10.432;2023-07-08T14:27:20;33.50;79.30
13172;DHT22;6651;53.200;10.432;2023-07-08T14:29:47;33.40;76.40
13172;DHT22;6651;53.200;10.432;2023-07-08T14:32:26;33.40;76.10
13172;DHT22;6651;53.200;10.432;2023-07-08T14:35:19;33.50;76.30
13172;DHT22;6651;53.200;10.432;2023-07-08T14:37:47;33.60;76.40
13172;DHT22;6651;53.200;10.432;2023-07-08T14:43:00;33.90;77.70
13172;DHT22;6651;53.200;10.432;2023-07-08T14:45:27;34.00;76.70
13172;DHT22;6651;53.200;10.432;2023-07-08T14:47:53;34.10;76.70
13172;DHT22;6651;53.200;10.432;2023-07-08T14:50:19;34.10;74.90
13172;DHT22;6651;53.200;10.432;2023-07-08T14:52:44;34.00;74.80
13172;DHT22;6651;53.200;10.432;2023-07-08T14:55:10;34.10;75.70
13172;DHT22;6651;53.200;10.432;2023-07-08T14:57:47;34.10;74.30
13172;DHT22;6651;53.200;10.432;2023-07-08T15:00:16;34.00;74.70
13172;DHT22;6651;53.200;10.432;2023-07-08T15:02:44;34.00;75.10
13172;DHT22;6651;53.200;10.432;2023-07-08T15:05:23;34.00;75.80
13172;DHT22;6651;53.200;10.432;2023-07-08T15:07:54;33.80;75.30
13172;DHT22;6651;53.200;10.432;2023-07-08T15:10:21;33.70;73.90
13172;DHT22;6651;53.200;10.432;2023-07-08T15:12:48;33.40;77.70
13172;DHT22;6651;53.200;10.432;2023-07-08T15:15:34;33.40;77.30
13172;DHT22;6651;53.200;10.432;2023-07-08T15:18:16;33.20;73.30
13172;DHT22;6651;53.200;10.432;2023-07-08T15:20:42;33.20;75.90
13172;DHT22;6651;53.200;10.432;2023-07-08T15:23:10;33.30;76.30
13172;DHT22;6651;53.200;10.432;2023-07-08T15:25:36;33.50;76.50
13172;DHT22;6651;53.200;10.432;2023-07-08T15:28:03;33.30;76.40
13172;DHT22;6651;53.200;10.432;2023-07-08T15:30:30;33.00;75.30
13172;DHT22;6651;53.200;10.432;2023-07-08T15:32:57;33.10;77.60
13172;DHT22;6651;53.200;10.432;2023-07-08T23:36:29;21.60;99.90
13172;DHT22;6651;53.200;10.432;2023-07-08T23:38:55;21.50;99.90
13172;DHT22;6651;53.200;10.432;2023-07-08T23:41:21;21.40;99.90
13172;DHT22;6651;53.200;10.432;2023-07-08T23:43:46;21.40;99.90
13172;DHT22;6651;53.200;10.432;2023-07-08T23:46:19;21.40;99.90
13172;DHT22;6651;53.200;10.432;2023-07-08T23:48:47;21.40;99.90
13172;DHT22;6651;53.200;10.432;2023-07-08T23:51:13;21.40;99.90
13172;DHT22;6651;53.200;10.432;2023-07-08T23:53:39;21.30;99.90
13172;DHT22;6651;53.200;10.432;2023-07-08T23:56:19;21.10;99.90
13172;DHT22;6651;53.200;10.432;2023-07-08T23:58:47;21.10;99.90
